FRA weather

Frankfurt am Main Airport
Frankfurt am Main, Hesse, Germany

Public forecast

Using degrees Celsius for public forecast. Weather courtesy of forecast.io.

METAR (pilot weather report)

Retrieved 2019/01/21 13:20 UTC (9 minutes ago):

EDDF 211320Z 09003KT 050V150 9999 FEW024 01/M06 Q1021 NOSIG

TAF (pilot weather forecast)

Retrieved 2019/01/21 12:27 UTC (1 hour ago):

TAF TAF EDDF 211100Z 2112/2218 03006KT CAVOK BECMG 2116/2119 VRB03KT PROB30 TEMPO 2205/2208 4000 BR BECMG 2210/2212 19005KT